Time;durP1;ratioP1;P1;durP2;ratioP2;P2;SDS_P1;SDS_P2;PMS_P1;PMS_P2;Temp;Humidity;BMP_temperature;BMP_pressure;BME280_temperature;BME280_humidity;BME280_pressure;Samples;Min_cycle;Max_cycle;Signal;HPM_P1;HPM_P2
2022/04/22 00:00:37;;;;;;;8.80;8.00;;;7.10;99.90;;;;;;5115767;27;20268;-77
2022/04/22 00:03:06;;;;;;;8.80;8.00;;;7.10;99.90;;;;;;5133963;27;20215;-79
2022/04/22 00:05:33;;;;;;;9.43;7.93;;;7.10;99.90;;;;;;5116086;27;20191;-78
2022/04/22 00:08:01;;;;;;;8.93;8.13;;;7.10;99.90;;;;;;5129107;27;20238;-78
2022/04/22 00:10:28;;;;;;;9.13;8.23;;;7.00;99.90;;;;;;5115644;27;20610;-77
2022/04/22 00:12:55;;;;;;;10.00;9.07;;;6.90;99.90;;;;;;5112632;27;20328;-78
2022/04/22 00:15:22;;;;;;;8.37;7.67;;;6.90;99.90;;;;;;5119519;27;20665;-78
2022/04/22 00:17:50;;;;;;;9.13;8.33;;;6.80;99.90;;;;;;5122725;27;20188;-78
2022/04/22 00:20:17;;;;;;;9.07;8.27;;;6.80;99.90;;;;;;5115705;27;20244;-77
2022/04/22 00:22:44;;;;;;;9.57;8.57;;;6.70;99.90;;;;;;5133503;27;20718;-77
2022/04/22 00:25:14;;;;;;;9.80;8.80;;;6.70;99.90;;;;;;5133712;27;20661;-79
2022/04/22 00:27:42;;;;;;;8.93;8.03;;;6.60;99.90;;;;;;5122164;27;20714;-78
2022/04/22 00:30:11;;;;;;;9.57;8.70;;;6.50;99.90;;;;;;5109801;27;20677;-78
2022/04/22 00:32:39;;;;;;;9.90;8.97;;;6.50;99.90;;;;;;5103549;28;20237;-77
2022/04/22 00:35:07;;;;;;;9.37;8.57;;;6.50;99.90;;;;;;5129645;27;20656;-78
2022/04/22 00:37:34;;;;;;;9.57;8.77;;;6.50;99.90;;;;;;5115349;27;20191;-78
2022/04/22 00:40:01;;;;;;;9.50;8.70;;;6.50;99.90;;;;;;5133604;27;20234;-78
2022/04/22 00:42:29;;;;;;;9.53;8.63;;;6.50;99.90;;;;;;5133195;27;20731;-77
2022/04/22 00:44:59;;;;;;;9.60;8.60;;;6.40;99.90;;;;;;5133484;27;20264;-79
2022/04/22 00:47:26;;;;;;;9.40;8.27;;;6.40;99.90;;;;;;5116482;27;20667;-78
2022/04/22 00:49:52;;;;;;;8.97;8.17;;;6.40;99.90;;;;;;5133434;27;20578;-77
2022/04/22 00:52:20;;;;;;;9.70;8.80;;;6.30;99.90;;;;;;5122191;27;20697;-78
2022/04/22 00:54:48;;;;;;;9.73;8.90;;;6.30;99.90;;;;;;5118323;27;20675;-77
2022/04/22 00:57:18;;;;;;;9.27;8.47;;;6.30;99.90;;;;;;5117830;27;20196;-77
2022/04/22 00:59:46;;;;;;;9.97;8.63;;;6.30;99.90;;;;;;5122009;27;20228;-77
2022/04/22 01:02:13;;;;;;;9.47;8.57;;;6.30;99.90;;;;;;5133051;27;20209;-78
2022/04/22 01:10:09;;;;;;;9.43;8.53;;;6.40;99.90;;;;;;5118961;27;20196;-77
2022/04/22 01:12:36;;;;;;;9.13;8.33;;;6.40;99.90;;;;;;5124409;27;20205;-77
2022/04/22 01:15:06;;;;;;;9.63;8.80;;;6.40;99.90;;;;;;5133203;27;20259;-78
2022/04/22 01:17:33;;;;;;;10.10;9.17;;;6.40;99.90;;;;;;5116588;27;20558;-78
2022/04/22 01:19:59;;;;;;;10.00;9.10;;;6.30;99.90;;;;;;5132984;27;20189;-78
2022/04/22 01:22:28;;;;;;;9.90;8.97;;;6.30;99.90;;;;;;5132746;27;20205;-77
2022/04/22 01:24:57;;;;;;;9.83;9.03;;;6.40;99.90;;;;;;5133062;27;20264;-78
2022/04/22 01:27:26;;;;;;;9.30;8.50;;;6.30;99.90;;;;;;5120493;28;20193;-79
2022/04/22 01:29:54;;;;;;;10.10;9.20;;;6.30;99.90;;;;;;5123061;27;20193;-77
2022/04/22 01:32:20;;;;;;;10.07;9.17;;;6.30;99.90;;;;;;5120547;28;20204;-77
2022/04/22 01:34:47;;;;;;;10.20;9.20;;;6.30;99.90;;;;;;5116170;28;20590;-78
2022/04/22 01:37:14;;;;;;;9.73;8.73;;;6.30;99.90;;;;;;5132931;27;20185;-78
2022/04/22 01:39:42;;;;;;;10.17;9.17;;;6.30;99.90;;;;;;5116260;28;20205;-78
2022/04/22 01:42:09;;;;;;;9.37;8.47;;;6.30;99.90;;;;;;5123104;22;20313;-76
2022/04/22 01:44:37;;;;;;;9.13;8.33;;;6.30;99.90;;;;;;5068995;28;20213;-77
2022/04/22 01:47:04;;;;;;;10.20;9.30;;;6.30;99.90;;;;;;5062190;28;20195;-76
2022/04/22 01:49:31;;;;;;;10.17;9.17;;;6.20;99.90;;;;;;5067224;28;20768;-76
2022/04/22 01:51:58;;;;;;;10.30;9.37;;;6.10;99.90;;;;;;5069239;28;20218;-77
2022/04/22 01:54:25;;;;;;;10.20;9.20;;;6.10;99.90;;;;;;5066671;28;20302;-76
2022/04/22 01:56:54;;;;;;;10.50;9.50;;;6.10;99.90;;;;;;5067857;28;20286;-77
2022/04/22 01:59:21;;;;;;;10.40;9.40;;;6.10;99.90;;;;;;5068666;28;20195;-77
2022/04/22 02:01:48;;;;;;;10.03;9.07;;;6.00;99.90;;;;;;5069512;28;20218;-76
2022/04/22 02:04:14;;;;;;;11.37;9.80;;;6.00;99.90;;;;;;5069793;28;20569;-77
2022/04/22 02:06:41;;;;;;;10.27;9.27;;;6.00;99.90;;;;;;5083168;28;20207;-76
2022/04/22 02:09:08;;;;;;;10.37;9.37;;;5.90;99.90;;;;;;5086689;28;20446;-77
2022/04/22 02:11:35;;;;;;;10.53;9.53;;;5.90;99.90;;;;;;5069392;28;20205;-77
2022/04/22 02:14:04;;;;;;;10.53;9.63;;;5.80;99.90;;;;;;5069645;28;20194;-77
2022/04/22 02:16:31;;;;;;;10.43;9.53;;;5.80;99.90;;;;;;5067466;28;21118;-76
2022/04/22 02:18:58;;;;;;;11.13;10.10;;;5.80;99.90;;;;;;5069728;28;20686;-77
2022/04/22 02:21:25;;;;;;;10.97;9.87;;;5.70;99.90;;;;;;5069357;28;20203;-77
2022/04/22 02:23:52;;;;;;;10.80;9.80;;;5.80;99.90;;;;;;5071842;28;20203;-76
2022/04/22 02:26:19;;;;;;;11.63;10.53;;;5.70;99.90;;;;;;5073366;28;20300;-77
2022/04/22 02:28:45;;;;;;;12.07;10.87;;;5.70;99.90;;;;;;5073370;28;20726;-77
2022/04/22 02:31:13;;;;;;;11.37;10.37;;;5.70;99.90;;;;;;5073056;28;20294;-77
2022/04/22 02:33:42;;;;;;;11.87;10.60;;;5.70;99.90;;;;;;5081835;28;20269;-76
2022/04/22 02:36:11;;;;;;;10.27;9.27;;;5.70;99.90;;;;;;5073307;28;20206;-76
2022/04/22 02:38:38;;;;;;;10.67;9.67;;;5.60;99.90;;;;;;5089507;28;20207;-76
2022/04/22 02:46:37;;;;;;;11.33;10.23;;;5.50;99.90;;;;;;5077064;28;20202;-86
2022/04/22 02:49:04;;;;;;;11.30;10.23;;;5.50;99.90;;;;;;5077726;28;20314;-84
2022/04/22 02:51:31;;;;;;;10.60;9.67;;;5.50;99.90;;;;;;5077612;28;20198;-78
2022/04/22 02:53:58;;;;;;;12.23;11.07;;;5.50;99.90;;;;;;5076560;28;20566;-78
2022/04/22 02:56:26;;;;;;;11.40;10.30;;;5.40;99.90;;;;;;5092292;28;20284;-78
2022/04/22 02:58:54;;;;;;;11.03;9.97;;;5.40;99.90;;;;;;5082828;28;20299;-79
2022/04/22 03:01:21;;;;;;;11.87;10.67;;;5.40;99.90;;;;;;5076100;28;20245;-79
2022/04/22 03:03:50;;;;;;;12.30;11.20;;;5.40;99.90;;;;;;5075941;28;20215;-79
2022/04/22 03:06:17;;;;;;;11.87;10.80;;;5.40;99.90;;;;;;5074037;28;20196;-79
2022/04/22 03:08:44;;;;;;;11.90;10.80;;;5.40;99.90;;;;;;5085580;28;21007;-80
2022/04/22 03:11:11;;;;;;;12.17;11.07;;;5.30;99.90;;;;;;5075644;28;20194;-79
2022/04/22 03:13:39;;;;;;;11.87;10.87;;;5.30;99.90;;;;;;5078306;28;20214;-81
2022/04/22 03:16:06;;;;;;;11.07;10.07;;;5.20;99.90;;;;;;5088767;28;20292;-82
2022/04/22 03:18:34;;;;;;;11.63;10.50;;;5.20;99.90;;;;;;5073864;28;20225;-81
2022/04/22 03:21:03;;;;;;;12.27;11.07;;;5.20;99.90;;;;;;5074291;28;20298;-80
2022/04/22 03:23:30;;;;;;;11.40;10.37;;;5.00;99.90;;;;;;5074845;28;20215;-80
2022/04/22 03:25:57;;;;;;;12.80;11.60;;;4.90;99.90;;;;;;5073620;28;20228;-78
2022/04/22 03:28:24;;;;;;;12.40;11.20;;;4.90;99.90;;;;;;5075142;28;20198;-78
2022/04/22 03:30:51;;;;;;;11.77;10.70;;;4.90;99.90;;;;;;5078671;28;20223;-78
2022/04/22 03:33:19;;;;;;;12.77;11.43;;;4.90;99.90;;;;;;5082412;28;20281;-77
2022/04/22 03:35:50;;;;;;;11.43;10.40;;;4.90;99.90;;;;;;5072595;28;20645;-77
2022/04/22 03:38:19;;;;;;;12.67;11.57;;;4.90;99.90;;;;;;5072437;28;20248;-77
2022/04/22 03:40:47;;;;;;;13.37;11.57;;;4.80;99.90;;;;;;5082136;28;20194;-78
2022/04/22 03:43:14;;;;;;;12.27;10.90;;;4.70;99.90;;;;;;5074907;28;20219;-77
2022/04/22 03:45:41;;;;;;;13.17;11.30;;;4.70;99.90;;;;;;5058205;28;20234;-78
2022/04/22 03:48:08;;;;;;;13.10;11.80;;;4.70;99.90;;;;;;5066235;28;20195;-78
2022/04/22 03:50:36;;;;;;;12.90;11.70;;;4.70;99.90;;;;;;5060242;28;20281;-77
2022/04/22 03:53:04;;;;;;;12.23;11.00;;;4.70;99.90;;;;;;5077438;28;20313;-78
2022/04/22 03:55:33;;;;;;;12.53;11.33;;;4.70;99.90;;;;;;5064973;28;20594;-78
2022/04/22 03:58:11;;;;;;;11.00;9.90;;;4.60;99.90;;;;;;5062325;28;20195;-78
2022/04/22 04:00:39;;;;;;;12.93;11.63;;;4.60;99.90;;;;;;5062661;28;20217;-77
2022/04/22 04:03:07;;;;;;;11.93;10.73;;;4.50;99.90;;;;;;5061664;28;20218;-77
2022/04/22 04:05:34;;;;;;;14.93;12.43;;;4.50;99.90;;;;;;5079686;28;20199;-78
2022/04/22 04:08:01;;;;;;;13.80;12.50;;;4.50;99.90;;;;;;5065505;28;20301;-77
2022/04/22 04:16:00;;;;;;;12.33;11.10;;;4.50;99.90;;;;;;5060517;28;20229;-77
2022/04/22 04:18:29;;;;;;;11.63;9.90;;;4.50;99.90;;;;;;5063881;28;20235;-77
2022/04/22 04:23:42;;;;;;;12.10;10.57;;;4.40;99.90;;;;;;5074694;28;20607;-77
2022/04/22 04:26:09;;;;;;;11.40;9.70;;;4.40;99.90;;;;;;5057821;28;20192;-77
2022/04/22 04:28:38;;;;;;;10.90;9.80;;;4.40;99.90;;;;;;5057990;28;20286;-77
2022/04/22 04:31:06;;;;;;;11.47;9.43;;;4.40;99.90;;;;;;5064705;28;20214;-78
2022/04/22 04:33:33;;;;;;;13.77;9.63;;;4.40;99.90;;;;;;5060384;28;20493;-78
2022/04/22 04:36:01;;;;;;;11.57;10.30;;;4.40;99.90;;;;;;5060914;28;20413;-77
2022/04/22 04:38:28;;;;;;;11.73;10.50;;;4.50;99.90;;;;;;5063892;28;20199;-78
2022/04/22 04:40:55;;;;;;;10.30;9.20;;;4.50;99.90;;;;;;5061431;28;20188;-78
2022/04/22 04:43:26;;;;;;;11.13;9.30;;;4.50;99.90;;;;;;5058678;28;20223;-78
2022/04/22 04:45:55;;;;;;;14.40;10.43;;;4.50;99.90;;;;;;5056314;28;20195;-78
2022/04/22 04:48:23;;;;;;;14.57;11.20;;;4.60;99.90;;;;;;5056187;28;20578;-78
2022/04/22 04:50:51;;;;;;;16.90;11.33;;;4.60;99.90;;;;;;5055422;28;20611;-78
2022/04/22 04:53:19;;;;;;;14.97;11.57;;;4.70;99.90;;;;;;5073443;28;20321;-78
2022/04/22 04:55:47;;;;;;;15.43;10.97;;;4.70;99.90;;;;;;5057072;28;20238;-77
2022/04/22 04:58:14;;;;;;;16.30;11.20;;;4.70;99.90;;;;;;5056929;28;20191;-77
2022/04/22 05:00:41;;;;;;;14.33;11.57;;;4.90;99.90;;;;;;5060349;28;20595;-77
2022/04/22 05:03:10;;;;;;;13.53;12.03;;;4.90;99.90;;;;;;5050143;28;20254;-78
2022/04/22 05:05:37;;;;;;;14.50;13.10;;;5.00;99.90;;;;;;5057706;28;20751;-78
2022/04/22 05:08:07;;;;;;;20.30;14.13;;;5.20;99.90;;;;;;5053727;28;20298;-77
2022/04/22 05:10:35;;;;;;;14.93;12.10;;;5.40;99.90;;;;;;5057525;28;20610;-78
2022/04/22 05:13:04;;;;;;;15.83;13.73;;;5.60;99.90;;;;;;5055846;28;20697;-77
2022/04/22 05:15:32;;;;;;;15.37;13.70;;;5.90;99.90;;;;;;5075513;28;20217;-77
2022/04/22 05:18:02;;;;;;;15.93;13.17;;;6.00;99.90;;;;;;5058774;28;20201;-78
2022/04/22 05:20:32;;;;;;;13.43;12.07;;;6.20;99.90;;;;;;5055785;28;20204;-77
2022/04/22 05:22:59;;;;;;;14.33;12.90;;;6.30;99.90;;;;;;5058972;28;20221;-78
2022/04/22 05:25:26;;;;;;;12.70;9.60;;;6.40;99.90;;;;;;5061379;28;20691;-77
2022/04/22 05:27:54;;;;;;;14.30;12.90;;;6.50;99.90;;;;;;5058529;28;20269;-78
2022/04/22 05:33:05;;;;;;;14.23;12.23;;;7.20;99.90;;;;;;5060575;28;20317;-77
2022/04/22 05:35:34;;;;;;;12.73;10.07;;;7.60;99.90;;;;;;5055417;28;20233;-78
2022/04/22 05:38:04;;;;;;;13.50;10.40;;;7.80;99.90;;;;;;5060682;28;20244;-78
2022/04/22 05:40:33;;;;;;;13.13;9.80;;;8.00;99.90;;;;;;5056815;28;20213;-78
2022/04/22 05:43:01;;;;;;;13.63;10.97;;;8.10;99.90;;;;;;5078126;28;20226;-78
2022/04/22 05:45:28;;;;;;;16.10;10.67;;;8.20;99.90;;;;;;5086084;28;20228;-78
2022/04/22 05:47:56;;;;;;;13.73;10.13;;;8.20;99.90;;;;;;5083353;28;20293;-78
2022/04/22 05:50:24;;;;;;;14.03;11.17;;;8.30;99.90;;;;;;5079885;28;20210;-78
2022/04/22 05:52:53;;;;;;;13.37;11.60;;;8.40;99.90;;;;;;5096045;28;20634;-76
2022/04/22 05:55:22;;;;;;;14.97;11.10;;;8.40;99.90;;;;;;5084000;28;20750;-78
2022/04/22 05:57:51;;;;;;;17.43;14.47;;;8.50;99.90;;;;;;5091529;28;20194;-78
2022/04/22 06:00:20;;;;;;;16.13;13.87;;;8.50;99.90;;;;;;5089987;28;20194;-78
2022/04/22 06:02:48;;;;;;;14.43;12.93;;;8.60;99.90;;;;;;5090449;28;20333;-78
2022/04/22 06:05:16;;;;;;;15.93;12.17;;;8.70;99.90;;;;;;5092332;28;20194;-78
2022/04/22 06:07:44;;;;;;;14.70;12.10;;;8.80;99.90;;;;;;5088066;28;20198;-78
2022/04/22 06:10:32;;;;;;;16.00;12.13;;;8.90;99.90;;;;;;5085789;28;20245;-78
2022/04/22 06:12:59;;;;;;;17.93;13.43;;;8.90;99.90;;;;;;5087049;28;20218;-78
2022/04/22 06:15:26;;;;;;;18.07;13.13;;;9.00;99.90;;;;;;5088928;28;20225;-78
2022/04/22 06:17:53;;;;;;;16.87;13.33;;;9.10;99.90;;;;;;5088879;28;20198;-78
2022/04/22 06:20:21;;;;;;;17.53;13.20;;;9.20;99.90;;;;;;5089748;28;20195;-79
2022/04/22 06:22:48;;;;;;;18.20;14.13;;;9.50;99.90;;;;;;5091385;28;20279;-78
2022/04/22 06:25:16;;;;;;;18.17;16.20;;;9.60;99.90;;;;;;5092582;28;20222;-78
2022/04/22 06:27:45;;;;;;;16.80;14.20;;;9.60;99.90;;;;;;5088001;28;20212;-78
2022/04/22 06:30:15;;;;;;;19.97;17.90;;;9.80;99.90;;;;;;5087420;28;20218;-78
2022/04/22 06:32:44;;;;;;;16.63;13.63;;;9.90;99.90;;;;;;5089604;28;20214;-78
2022/04/22 06:35:13;;;;;;;18.00;15.60;;;9.90;99.90;;;;;;5088946;28;20256;-78
2022/04/22 06:37:41;;;;;;;18.07;14.73;;;10.10;99.90;;;;;;5101216;28;20203;-79
2022/04/22 06:45:48;;;;;;;18.20;15.17;;;10.30;99.90;;;;;;5066678;28;20197;-77
2022/04/22 06:48:18;;;;;;;18.57;15.40;;;10.40;99.90;;;;;;5064734;28;20203;-78
2022/04/22 06:50:46;;;;;;;19.17;16.17;;;10.30;99.90;;;;;;5063321;28;20732;-78
2022/04/22 06:53:15;;;;;;;18.93;16.60;;;10.20;99.90;;;;;;5064118;28;20269;-78
2022/04/22 06:55:43;;;;;;;20.20;16.90;;;10.40;99.90;;;;;;5067645;28;20283;-78
2022/04/22 06:58:13;;;;;;;21.70;18.00;;;10.40;99.90;;;;;;5067280;28;20295;-78
2022/04/22 07:00:41;;;;;;;20.87;16.87;;;10.60;99.90;;;;;;5056213;28;20196;-78
2022/04/22 07:03:09;;;;;;;21.67;17.83;;;10.40;99.90;;;;;;5080886;28;20695;-78
2022/04/22 07:05:38;;;;;;;20.00;16.90;;;10.50;99.90;;;;;;5063496;28;20198;-78
2022/04/22 07:08:06;;;;;;;18.60;16.43;;;10.40;99.90;;;;;;5063428;28;20210;-78
2022/04/22 07:10:34;;;;;;;22.33;16.30;;;10.50;99.90;;;;;;5060243;28;20282;-78
2022/04/22 07:13:05;;;;;;;21.27;16.60;;;10.80;99.90;;;;;;5059432;28;20222;-78
2022/04/22 07:15:34;;;;;;;20.27;16.33;;;11.00;99.90;;;;;;5065269;28;20210;-78
2022/04/22 07:18:01;;;;;;;19.63;17.57;;;11.30;99.90;;;;;;5067109;28;20232;-79
2022/04/22 07:20:29;;;;;;;20.30;17.23;;;11.40;99.90;;;;;;5067387;28;20204;-78
2022/04/22 07:22:59;;;;;;;18.63;16.53;;;11.40;99.90;;;;;;5065443;28;20270;-78
2022/04/22 07:25:27;;;;;;;18.13;15.87;;;11.80;99.90;;;;;;5064983;28;20202;-78
2022/04/22 07:27:55;;;;;;;17.70;15.23;;;11.80;99.90;;;;;;5061504;28;20208;-79
2022/04/22 07:30:24;;;;;;;19.40;15.43;;;12.20;99.90;;;;;;5061133;28;20294;-78
2022/04/22 07:32:53;;;;;;;17.20;14.10;;;12.60;99.90;;;;;;5062233;28;20218;-78
2022/04/22 07:35:21;;;;;;;20.03;15.57;;;12.80;99.90;;;;;;5073805;28;20207;-79
2022/04/22 07:37:50;;;;;;;18.37;15.23;;;12.90;99.90;;;;;;5069773;28;20321;-78
2022/04/22 07:40:19;;;;;;;21.07;16.70;;;12.90;99.90;;;;;;5064430;28;20281;-79
2022/04/22 07:48:17;;;;;;;18.37;15.07;;;13.40;99.90;;;;;;5097454;28;20692;-78
2022/04/22 07:50:45;;;;;;;19.00;15.73;;;13.60;99.90;;;;;;5103542;28;20197;-78
2022/04/22 07:53:12;;;;;;;19.17;15.03;;;13.90;99.90;;;;;;5104447;28;20218;-78
2022/04/22 07:55:39;;;;;;;16.70;14.80;;;14.10;99.90;;;;;;5095859;28;20289;-78
2022/04/22 07:58:07;;;;;;;17.27;15.47;;;14.50;99.90;;;;;;5097489;28;20655;-80
2022/04/22 08:00:34;;;;;;;16.97;14.67;;;14.80;99.90;;;;;;5106056;28;20658;-80
2022/04/22 08:03:01;;;;;;;15.97;14.27;;;15.30;99.90;;;;;;5105327;28;20224;-80
2022/04/22 08:05:29;;;;;;;15.97;14.03;;;15.40;99.90;;;;;;5103727;28;20202;-81
2022/04/22 08:07:57;;;;;;;16.33;14.63;;;15.50;99.90;;;;;;5102234;28;20685;-80
2022/04/22 08:10:24;;;;;;;17.97;16.17;;;15.80;99.90;;;;;;5106437;28;20222;-81
2022/04/22 08:12:52;;;;;;;21.13;17.53;;;15.40;99.90;;;;;;5096622;28;20227;-80
2022/04/22 08:15:21;;;;;;;18.07;16.17;;;15.00;99.90;;;;;;5103756;28;20749;-81
2022/04/22 08:17:48;;;;;;;19.33;16.87;;;15.10;99.90;;;;;;5107902;28;20217;-80
2022/04/22 08:20:15;;;;;;;18.40;16.37;;;15.40;99.90;;;;;;5106138;28;20268;-81
2022/04/22 08:22:45;;;;;;;18.27;16.10;;;15.40;99.90;;;;;;5107024;28;20223;-80
2022/04/22 08:25:13;;;;;;;18.93;15.83;;;15.70;99.90;;;;;;5091909;28;20267;-81
2022/04/22 08:27:41;;;;;;;19.07;16.10;;;15.80;99.90;;;;;;5108266;28;20223;-81
2022/04/22 08:30:10;;;;;;;17.30;15.50;;;15.30;99.90;;;;;;5108904;28;20553;-80
2022/04/22 08:32:37;;;;;;;18.57;14.80;;;15.60;99.90;;;;;;5116788;27;20303;-81
2022/04/22 08:35:04;;;;;;;17.13;14.93;;;15.60;99.90;;;;;;5104465;28;20223;-78
2022/04/22 08:37:31;;;;;;;17.37;15.47;;;15.80;99.90;;;;;;5110390;28;20326;-79
2022/04/22 08:39:59;;;;;;;15.23;13.63;;;16.10;99.90;;;;;;5099131;28;20200;-78
2022/04/22 08:42:27;;;;;;;17.97;16.27;;;16.70;99.90;;;;;;5102103;28;20329;-78
2022/04/22 08:44:55;;;;;;;20.50;18.30;;;16.60;99.90;;;;;;5106099;28;20196;-78
2022/04/22 08:50:12;;;;;;;17.87;16.10;;;16.50;99.90;;;;;;5106287;28;20188;-78
2022/04/22 08:52:42;;;;;;;20.23;18.13;;;16.20;99.90;;;;;;5099035;28;20771;-78
2022/04/22 08:55:12;;;;;;;20.03;18.03;;;16.30;99.90;;;;;;5090127;28;20193;-78
2022/04/22 08:57:42;;;;;;;17.83;15.17;;;16.00;99.90;;;;;;5104872;28;20197;-79
2022/04/22 09:00:10;;;;;;;17.93;16.10;;;16.60;99.90;;;;;;5102511;28;20660;-79
2022/04/22 09:02:38;;;;;;;16.33;14.57;;;16.90;99.90;;;;;;5090948;28;20223;-79
2022/04/22 09:05:08;;;;;;;15.87;14.17;;;16.90;99.90;;;;;;5108345;28;20197;-79
2022/04/22 09:07:35;;;;;;;17.47;15.67;;;16.70;99.90;;;;;;5100159;28;20213;-79
2022/04/22 09:10:02;;;;;;;14.73;12.63;;;16.80;99.90;;;;;;5107496;28;20197;-79
2022/04/22 09:12:31;;;;;;;19.30;17.50;;;16.90;99.90;;;;;;5097612;28;20249;-79
2022/04/22 09:14:58;;;;;;;13.87;12.23;;;17.40;99.90;;;;;;5103952;28;20220;-79
2022/04/22 09:17:29;;;;;;;15.27;13.10;;;17.20;99.90;;;;;;5107746;28;20189;-79
2022/04/22 09:19:57;;;;;;;16.03;14.53;;;17.80;99.90;;;;;;5098830;28;20224;-79
2022/04/22 09:22:25;;;;;;;16.97;15.20;;;18.10;99.90;;;;;;5101061;28;20266;-79
2022/04/22 09:24:53;;;;;;;13.67;12.27;;;18.10;99.90;;;;;;5105114;28;20197;-79
2022/04/22 09:27:21;;;;;;;18.00;16.30;;;18.00;99.90;;;;;;5104329;28;20211;-79
2022/04/22 09:29:55;;;;;;;17.47;15.73;;;18.20;99.90;;;;;;5106103;28;20273;-79
2022/04/22 09:32:26;;;;;;;16.60;14.90;;;18.10;99.90;;;;;;5103979;28;20574;-81
2022/04/22 09:34:56;;;;;;;15.07;13.67;;;18.10;99.90;;;;;;5104366;28;20580;-78
2022/04/22 09:42:55;;;;;;;14.83;13.57;;;18.10;99.90;;;;;;5092985;28;20224;-79
2022/04/22 09:45:34;;;;;;;18.87;17.03;;;18.70;99.90;;;;;;5101703;28;20280;-79
2022/04/22 09:48:01;;;;;;;18.03;16.10;;;18.60;99.90;;;;;;5102589;28;20213;-79
2022/04/22 09:50:43;;;;;;;15.40;13.90;;;18.20;99.90;;;;;;5104516;28;20655;-79
2022/04/22 09:53:11;;;;;;;16.23;14.77;;;18.40;99.90;;;;;;5105893;28;20219;-79
2022/04/22 09:55:48;;;;;;;16.40;14.33;;;18.50;99.90;;;;;;5097680;28;20667;-78
2022/04/22 09:58:23;;;;;;;15.40;13.83;;;18.30;99.90;;;;;;5089220;28;20214;-79
2022/04/22 10:00:58;;;;;;;16.23;14.63;;;18.40;99.90;;;;;;5102453;28;20203;-79
2022/04/22 10:03:28;;;;;;;15.30;13.80;;;18.20;99.90;;;;;;5108429;28;20219;-79
2022/04/22 10:05:56;;;;;;;16.50;15.00;;;18.40;99.90;;;;;;5103923;28;20194;-79
2022/04/22 10:08:25;;;;;;;15.17;13.73;;;18.40;99.90;;;;;;5104184;28;20645;-79
2022/04/22 10:10:55;;;;;;;15.23;13.63;;;18.20;99.90;;;;;;5105923;28;20194;-79
2022/04/22 10:13:25;;;;;;;15.87;14.30;;;18.20;99.90;;;;;;5103962;28;20525;-79
2022/04/22 10:15:54;;;;;;;13.63;12.33;;;17.80;99.90;;;;;;5103894;28;20285;-79
2022/04/22 10:18:22;;;;;;;14.37;12.97;;;18.00;99.90;;;;;;5107282;28;20198;-79
2022/04/22 10:20:50;;;;;;;14.57;13.10;;;17.60;99.90;;;;;;5096100;28;20286;-79
2022/04/22 10:23:17;;;;;;;14.20;12.70;;;17.90;99.90;;;;;;5102510;28;20237;-79
2022/04/22 10:25:44;;;;;;;13.57;12.13;;;17.90;99.90;;;;;;5105192;28;20202;-79
2022/04/22 10:28:12;;;;;;;16.13;13.33;;;17.70;99.90;;;;;;5102408;28;20642;-78
2022/04/22 10:30:42;;;;;;;13.17;11.87;;;17.30;99.90;;;;;;5101410;28;20205;-79
2022/04/22 10:33:11;;;;;;;13.20;11.90;;;17.30;99.90;;;;;;5101914;28;20647;-79
2022/04/22 10:35:42;;;;;;;14.50;13.10;;;17.30;99.90;;;;;;5093643;28;20194;-79
2022/04/22 10:38:30;;;;;;;13.00;11.80;;;17.40;99.90;;;;;;5105730;28;20198;-78
2022/04/22 10:41:00;;;;;;;15.37;13.47;;;17.60;99.90;;;;;;5109128;28;20200;-79
2022/04/22 10:43:28;;;;;;;15.83;14.23;;;17.20;99.90;;;;;;5103338;28;20708;-78
2022/04/22 10:48:42;;;;;;;16.40;14.80;;;17.10;99.90;;;;;;5100446;28;20310;-78
2022/04/22 10:51:13;;;;;;;15.90;14.37;;;16.90;99.90;;;;;;5105325;28;20198;-79
2022/04/22 10:53:48;;;;;;;13.73;12.43;;;16.80;99.90;;;;;;5104464;28;20214;-79
2022/04/22 10:56:33;;;;;;;14.90;13.40;;;16.80;99.90;;;;;;5097464;28;20412;-79
2022/04/22 10:59:24;;;;;;;13.27;11.87;;;16.90;99.90;;;;;;5104493;28;20201;-78
2022/04/22 11:01:52;;;;;;;16.20;12.63;;;17.10;99.90;;;;;;5100275;28;20197;-79
2022/04/22 11:04:23;;;;;;;14.50;13.10;;;17.10;99.90;;;;;;5108120;28;20195;-79
2022/04/22 11:06:50;;;;;;;12.87;11.57;;;16.90;99.90;;;;;;5098978;28;20707;-79
2022/04/22 11:09:25;;;;;;;15.60;13.20;;;17.00;99.90;;;;;;5104345;28;20214;-79
2022/04/22 11:11:52;;;;;;;12.50;11.30;;;17.00;99.90;;;;;;5107288;28;20598;-79
2022/04/22 11:14:21;;;;;;;10.90;9.80;;;17.20;99.90;;;;;;5105316;28;20196;-79
2022/04/22 11:16:48;;;;;;;14.07;12.67;;;17.30;99.90;;;;;;5088592;28;20186;-79
2022/04/22 11:19:27;;;;;;;14.30;12.90;;;17.00;99.90;;;;;;5101329;28;20280;-79
2022/04/22 11:21:57;;;;;;;13.67;12.30;;;16.90;99.90;;;;;;5104403;28;20203;-79
2022/04/22 11:24:26;;;;;;;13.60;11.43;;;16.80;99.90;;;;;;5110615;28;20196;-79
2022/04/22 11:27:02;;;;;;;11.87;10.67;;;16.90;99.90;;;;;;5098686;28;20197;-79
2022/04/22 11:29:29;;;;;;;11.10;9.87;;;17.10;99.90;;;;;;5105019;28;20200;-79
2022/04/22 11:32:03;;;;;;;12.57;11.37;;;17.30;99.90;;;;;;5107635;28;20220;-79
2022/04/22 11:35:05;;;;;;;12.93;11.63;;;17.30;99.90;;;;;;5108900;28;20201;-79
2022/04/22 11:37:33;;;;;;;12.77;10.40;;;17.20;99.90;;;;;;5106240;28;20183;-79
2022/04/22 11:40:01;;;;;;;12.67;11.40;;;17.30;99.90;;;;;;5098281;28;20225;-79
2022/04/22 11:42:28;;;;;;;12.33;11.13;;;17.40;99.90;;;;;;5119079;27;20331;-79
2022/04/22 11:45:03;;;;;;;12.87;11.67;;;17.40;99.90;;;;;;5108809;28;20192;-79
2022/04/22 11:47:30;;;;;;;13.57;12.23;;;17.40;99.90;;;;;;5107835;28;20262;-80
2022/04/22 11:49:59;;;;;;;13.73;12.33;;;17.30;99.90;;;;;;5088716;28;20258;-79
2022/04/22 11:52:28;;;;;;;13.93;12.60;;;17.10;99.90;;;;;;5099470;28;20275;-79
2022/04/22 11:54:59;;;;;;;13.97;12.57;;;17.20;99.90;;;;;;5100361;28;20203;-79
2022/04/22 11:57:27;;;;;;;12.53;11.33;;;17.10;99.90;;;;;;5102537;28;20250;-79
2022/04/22 12:05:36;;;;;;;10.83;9.73;;;17.10;99.90;;;;;;5106593;28;20196;-79
2022/04/22 12:08:08;;;;;;;13.47;12.17;;;17.40;99.90;;;;;;5106864;28;20229;-79
2022/04/22 12:10:35;;;;;;;11.97;10.87;;;17.50;99.90;;;;;;5106210;28;20616;-79
2022/04/22 12:13:03;;;;;;;11.83;10.63;;;17.50;99.90;;;;;;5091396;28;20234;-79
2022/04/22 12:15:31;;;;;;;12.67;11.47;;;17.40;99.90;;;;;;5098948;28;20221;-79
2022/04/22 12:17:58;;;;;;;10.43;9.43;;;17.50;99.90;;;;;;5098567;28;20268;-79
2022/04/22 12:20:26;;;;;;;13.67;12.37;;;17.70;99.90;;;;;;5102270;28;20212;-79
2022/04/22 12:22:56;;;;;;;11.57;10.57;;;17.70;99.90;;;;;;5105209;28;20227;-79
2022/04/22 12:25:23;;;;;;;13.87;11.90;;;17.70;99.90;;;;;;5104490;28;20197;-79
2022/04/22 12:28:08;;;;;;;13.93;12.53;;;17.70;99.90;;;;;;5103104;28;20297;-79
2022/04/22 12:30:37;;;;;;;13.77;12.47;;;17.60;99.90;;;;;;5103838;28;20202;-79
2022/04/22 12:33:05;;;;;;;12.90;11.07;;;17.50;99.90;;;;;;5103162;28;20230;-79
2022/04/22 12:35:32;;;;;;;11.80;10.70;;;17.40;99.90;;;;;;5109697;28;20677;-79
2022/04/22 12:38:06;;;;;;;9.97;8.90;;;17.40;99.90;;;;;;5098770;28;20194;-79
2022/04/22 12:40:47;;;;;;;11.83;9.07;;;17.50;99.90;;;;;;5100513;28;20193;-78
2022/04/22 12:43:32;;;;;;;13.27;10.63;;;17.60;99.90;;;;;;5100580;28;20230;-80
2022/04/22 12:52:12;;;;;;;10.67;9.60;;;17.80;99.90;;;;;;5096878;28;20257;-79
2022/04/22 12:54:42;;;;;;;10.40;9.43;;;17.80;99.90;;;;;;5089918;28;20197;-79
2022/04/22 12:57:13;;;;;;;10.70;9.67;;;18.00;99.90;;;;;;5104217;28;20197;-79
2022/04/22 12:59:44;;;;;;;11.77;10.57;;;18.00;99.90;;;;;;5096196;28;20388;-79
2022/04/22 13:02:14;;;;;;;9.47;8.47;;;18.00;99.90;;;;;;5102054;28;20217;-79
2022/04/22 13:05:00;;;;;;;10.17;9.17;;;18.00;99.90;;;;;;5102387;28;20221;-79
2022/04/22 13:07:40;;;;;;;13.17;11.27;;;18.00;99.90;;;;;;5105069;28;20709;-79
2022/04/22 13:10:09;;;;;;;13.40;12.00;;;18.10;99.90;;;;;;5098510;28;20204;-79
2022/04/22 13:12:39;;;;;;;12.57;10.70;;;18.00;99.90;;;;;;5099328;28;20217;-79
2022/04/22 13:15:07;;;;;;;11.20;10.20;;;18.20;99.90;;;;;;5103956;28;20212;-80
2022/04/22 13:17:40;;;;;;;11.63;10.43;;;18.10;99.90;;;;;;5099020;28;20265;-79
2022/04/22 13:20:08;;;;;;;13.87;10.77;;;18.10;99.90;;;;;;5085462;28;20197;-79
2022/04/22 13:22:35;;;;;;;13.07;11.77;;;18.20;99.90;;;;;;5096602;28;20223;-79
2022/04/22 13:25:02;;;;;;;13.90;12.60;;;18.00;99.90;;;;;;5103868;28;20646;-79
2022/04/22 13:27:31;;;;;;;12.50;11.30;;;18.00;99.90;;;;;;5105924;28;20220;-78
2022/04/22 13:29:58;;;;;;;10.70;9.70;;;17.90;99.90;;;;;;5082353;28;20255;-79
2022/04/22 13:32:25;;;;;;;11.20;10.10;;;18.00;99.90;;;;;;5082134;28;20249;-79
2022/04/22 13:34:52;;;;;;;10.37;9.40;;;18.00;99.90;;;;;;5104214;28;20199;-79
2022/04/22 13:37:19;;;;;;;10.87;9.80;;;18.10;99.90;;;;;;5103107;28;20307;-79
2022/04/22 13:39:46;;;;;;;10.63;9.53;;;18.20;99.90;;;;;;5102530;28;20282;-79